sensor_id;sensor_type;location;lat;lon;timestamp;temperature;humidity
21417;DHT22;10869;52.238;10.716;2022-08-04T03:01:55;20.40;93.50
21417;DHT22;10869;52.238;10.716;2022-08-04T03:04:50;20.40;93.20
21417;DHT22;10869;52.238;10.716;2022-08-04T03:30:56;20.30;93.10
21417;DHT22;10869;52.238;10.716;2022-08-04T03:44:20;20.20;93.30
21417;DHT22;10869;52.238;10.716;2022-08-04T03:55:43;20.40;92.10
21417;DHT22;10869;52.238;10.716;2022-08-04T03:58:38;20.30;92.20
21417;DHT22;10869;52.238;10.716;2022-08-04T04:28:51;20.70;92.70
21417;DHT22;10869;52.238;10.716;2022-08-04T04:39:54;20.80;93.10
21417;DHT22;10869;52.238;10.716;2022-08-04T04:48:11;20.80;94.40
21417;DHT22;10869;52.238;10.716;2022-08-04T04:53:27;20.80;95.00
21417;DHT22;10869;52.238;10.716;2022-08-04T04:56:07;20.80;94.80
21417;DHT22;10869;52.238;10.716;2022-08-04T04:58:37;21.00;95.00
21417;DHT22;10869;52.238;10.716;2022-08-04T05:06:47;21.40;95.00
21417;DHT22;10869;52.238;10.716;2022-08-04T05:09:30;21.50;95.10
21417;DHT22;10869;52.238;10.716;2022-08-04T05:14:47;21.70;94.80
21417;DHT22;10869;52.238;10.716;2022-08-04T05:17:32;21.80;94.90
21417;DHT22;10869;52.238;10.716;2022-08-04T05:20:14;21.90;94.90
21417;DHT22;10869;52.238;10.716;2022-08-04T05:23:05;22.00;94.70
21417;DHT22;10869;52.238;10.716;2022-08-04T05:28:58;22.30;94.30
21417;DHT22;10869;52.238;10.716;2022-08-04T05:31:32;22.40;94.20
21417;DHT22;10869;52.238;10.716;2022-08-04T05:34:13;22.50;94.60
21417;DHT22;10869;52.238;10.716;2022-08-04T05:36:43;22.60;94.80
21417;DHT22;10869;52.238;10.716;2022-08-04T05:39:14;22.70;94.90
21417;DHT22;10869;52.238;10.716;2022-08-04T05:41:42;22.80;94.90
21417;DHT22;10869;52.238;10.716;2022-08-04T05:44:09;22.80;94.50
21417;DHT22;10869;52.238;10.716;2022-08-04T05:46:35;23.00;94.40
21417;DHT22;10869;52.238;10.716;2022-08-04T05:49:03;23.00;94.10
21417;DHT22;10869;52.238;10.716;2022-08-04T05:51:29;23.40;94.30
21417;DHT22;10869;52.238;10.716;2022-08-04T05:53:57;25.80;91.90
21417;DHT22;10869;52.238;10.716;2022-08-04T05:56:23;28.90;84.00
21417;DHT22;10869;52.238;10.716;2022-08-04T05:58:51;29.50;80.80
21417;DHT22;10869;52.238;10.716;2022-08-04T06:04:41;27.80;86.30
21417;DHT22;10869;52.238;10.716;2022-08-04T06:07:08;27.20;88.60
21417;DHT22;10869;52.238;10.716;2022-08-04T06:09:38;27.00;89.00
21417;DHT22;10869;52.238;10.716;2022-08-04T06:12:10;26.40;90.30
21417;DHT22;10869;52.238;10.716;2022-08-04T06:14:44;25.90;91.20
21417;DHT22;10869;52.238;10.716;2022-08-04T06:17:14;25.60;91.20
21417;DHT22;10869;52.238;10.716;2022-08-04T06:19:41;25.40;91.20
21417;DHT22;10869;52.238;10.716;2022-08-04T06:22:10;25.30;91.40
21417;DHT22;10869;52.238;10.716;2022-08-04T06:24:38;25.30;91.80
21417;DHT22;10869;52.238;10.716;2022-08-04T06:30:27;25.30;92.10
21417;DHT22;10869;52.238;10.716;2022-08-04T06:32:55;25.30;92.10
21417;DHT22;10869;52.238;10.716;2022-08-04T06:38:44;25.50;91.90
21417;DHT22;10869;52.238;10.716;2022-08-04T06:41:10;25.70;91.70
21417;DHT22;10869;52.238;10.716;2022-08-04T06:46:59;25.90;91.60
21417;DHT22;10869;52.238;10.716;2022-08-04T06:49:26;26.00;91.40
21417;DHT22;10869;52.238;10.716;2022-08-04T06:51:53;26.20;91.30
21417;DHT22;10869;52.238;10.716;2022-08-04T06:54:20;26.30;92.00
21417;DHT22;10869;52.238;10.716;2022-08-04T06:56:46;26.40;91.60
21417;DHT22;10869;52.238;10.716;2022-08-04T06:59:15;26.60;92.00
21417;DHT22;10869;52.238;10.716;2022-08-04T07:01:45;26.70;92.20
21417;DHT22;10869;52.238;10.716;2022-08-04T07:04:11;26.80;91.60
21417;DHT22;10869;52.238;10.716;2022-08-04T07:06:37;27.00;91.20
21417;DHT22;10869;52.238;10.716;2022-08-04T07:09:04;27.00;91.30
21417;DHT22;10869;52.238;10.716;2022-08-04T07:11:32;27.10;91.50
21417;DHT22;10869;52.238;10.716;2022-08-04T07:17:21;27.50;90.10
21417;DHT22;10869;52.238;10.716;2022-08-04T07:19:47;27.60;90.30
21417;DHT22;10869;52.238;10.716;2022-08-04T07:22:14;27.70;90.20
21417;DHT22;10869;52.238;10.716;2022-08-04T07:24:41;27.80;90.70
21417;DHT22;10869;52.238;10.716;2022-08-04T07:27:07;27.90;90.10
21417;DHT22;10869;52.238;10.716;2022-08-04T07:29:37;28.00;88.70
21417;DHT22;10869;52.238;10.716;2022-08-04T07:32:04;28.10;89.30
21417;DHT22;10869;52.238;10.716;2022-08-04T07:34:32;28.40;81.90
21417;DHT22;10869;52.238;10.716;2022-08-04T07:36:59;28.70;78.40
21417;DHT22;10869;52.238;10.716;2022-08-04T07:39:27;29.10;75.70
21417;DHT22;10869;52.238;10.716;2022-08-04T07:41:55;29.30;73.60
21417;DHT22;10869;52.238;10.716;2022-08-04T07:44:21;29.60;70.50
21417;DHT22;10869;52.238;10.716;2022-08-04T07:46:47;29.90;69.50
21417;DHT22;10869;52.238;10.716;2022-08-04T07:49:13;30.20;68.40
21417;DHT22;10869;52.238;10.716;2022-08-04T07:51:39;30.50;67.40
21417;DHT22;10869;52.238;10.716;2022-08-04T07:54:06;30.60;68.80
21417;DHT22;10869;52.238;10.716;2022-08-04T07:56:38;30.80;66.70
21417;DHT22;10869;52.238;10.716;2022-08-04T07:59:06;31.00;65.90
21417;DHT22;10869;52.238;10.716;2022-08-04T08:04:54;31.50;66.20
21417;DHT22;10869;52.238;10.716;2022-08-04T08:07:20;31.70;64.90
21417;DHT22;10869;52.238;10.716;2022-08-04T08:09:46;31.70;64.10
21417;DHT22;10869;52.238;10.716;2022-08-04T08:12:12;31.90;65.40
21417;DHT22;10869;52.238;10.716;2022-08-04T08:14:38;32.00;63.60
21417;DHT22;10869;52.238;10.716;2022-08-04T08:17:04;32.10;63.10
21417;DHT22;10869;52.238;10.716;2022-08-04T08:19:31;32.10;63.10
21417;DHT22;10869;52.238;10.716;2022-08-04T08:21:58;32.20;62.20
21417;DHT22;10869;52.238;10.716;2022-08-04T08:24:25;32.30;63.30
21417;DHT22;10869;52.238;10.716;2022-08-04T08:26:51;32.50;62.00
21417;DHT22;10869;52.238;10.716;2022-08-04T08:29:17;32.60;61.50
21417;DHT22;10869;52.238;10.716;2022-08-04T08:31:44;32.70;62.10
21417;DHT22;10869;52.238;10.716;2022-08-04T08:34:12;32.80;61.50
21417;DHT22;10869;52.238;10.716;2022-08-04T08:36:45;33.00;60.60
21417;DHT22;10869;52.238;10.716;2022-08-04T08:39:20;33.00;60.10
21417;DHT22;10869;52.238;10.716;2022-08-04T08:42:07;33.10;60.10
21417;DHT22;10869;52.238;10.716;2022-08-04T09:02:33;33.70;58.50
21417;DHT22;10869;52.238;10.716;2022-08-04T09:10:41;33.90;57.80
21417;DHT22;10869;52.238;10.716;2022-08-04T09:13:16;34.00;58.20
21417;DHT22;10869;52.238;10.716;2022-08-04T09:18:33;34.20;57.10
21417;DHT22;10869;52.238;10.716;2022-08-04T09:21:30;34.20;56.20
21417;DHT22;10869;52.238;10.716;2022-08-04T09:24:12;34.40;56.90
21417;DHT22;10869;52.238;10.716;2022-08-04T09:26:49;34.50;56.70
21417;DHT22;10869;52.238;10.716;2022-08-04T09:29:35;34.60;57.30
21417;DHT22;10869;52.238;10.716;2022-08-04T09:37:59;34.80;56.30
21417;DHT22;10869;52.238;10.716;2022-08-04T09:49:39;35.10;57.30
21417;DHT22;10869;52.238;10.716;2022-08-04T09:55:04;35.20;54.60
21417;DHT22;10869;52.238;10.716;2022-08-04T09:57:49;35.10;54.50
21417;DHT22;10869;52.238;10.716;2022-08-04T10:00:16;35.00;55.70
21417;DHT22;10869;52.238;10.716;2022-08-04T10:02:55;35.10;56.10
21417;DHT22;10869;52.238;10.716;2022-08-04T10:08:20;35.30;55.30
21417;DHT22;10869;52.238;10.716;2022-08-04T10:11:11;35.30;55.90
21417;DHT22;10869;52.238;10.716;2022-08-04T10:13:59;35.40;56.40
21417;DHT22;10869;52.238;10.716;2022-08-04T10:19:26;35.40;55.30
21417;DHT22;10869;52.238;10.716;2022-08-04T10:22:07;35.60;54.00
21417;DHT22;10869;52.238;10.716;2022-08-04T10:25:33;35.50;54.60
21417;DHT22;10869;52.238;10.716;2022-08-04T10:27:57;35.50;55.40
21417;DHT22;10869;52.238;10.716;2022-08-04T10:30:25;35.70;55.50
21417;DHT22;10869;52.238;10.716;2022-08-04T10:33:03;35.80;56.40
21417;DHT22;10869;52.238;10.716;2022-08-04T10:35:39;35.90;54.20
21417;DHT22;10869;52.238;10.716;2022-08-04T10:40:44;36.30;55.50
21417;DHT22;10869;52.238;10.716;2022-08-04T10:49:09;35.80;54.50
21417;DHT22;10869;52.238;10.716;2022-08-04T10:57:13;36.00;54.60
21417;DHT22;10869;52.238;10.716;2022-08-04T11:00:03;36.20;54.30
21417;DHT22;10869;52.238;10.716;2022-08-04T11:08:35;36.80;53.90
21417;DHT22;10869;52.238;10.716;2022-08-04T11:15:17;36.80;53.90
21417;DHT22;10869;52.238;10.716;2022-08-04T11:17:47;36.90;53.10
21417;DHT22;10869;52.238;10.716;2022-08-04T11:23:36;37.00;53.60
21417;DHT22;10869;52.238;10.716;2022-08-04T11:26:12;37.10;54.30
21417;DHT22;10869;52.238;10.716;2022-08-04T11:34:48;36.10;53.40
21417;DHT22;10869;52.238;10.716;2022-08-04T11:37:22;36.10;53.40
21417;DHT22;10869;52.238;10.716;2022-08-04T11:40:08;36.20;53.40
21417;DHT22;10869;52.238;10.716;2022-08-04T11:42:42;36.00;55.30
21417;DHT22;10869;52.238;10.716;2022-08-04T11:45:14;36.20;55.00
21417;DHT22;10869;52.238;10.716;2022-08-04T11:47:53;36.60;54.80
21417;DHT22;10869;52.238;10.716;2022-08-04T11:52:53;36.80;53.00
21417;DHT22;10869;52.238;10.716;2022-08-04T11:55:25;36.70;54.60
21417;DHT22;10869;52.238;10.716;2022-08-04T11:58:11;36.50;55.10
21417;DHT22;10869;52.238;10.716;2022-08-04T12:13:31;35.80;56.80
21417;DHT22;10869;52.238;10.716;2022-08-04T12:16:17;35.90;55.00
21417;DHT22;10869;52.238;10.716;2022-08-04T12:22:13;36.30;56.60
21417;DHT22;10869;52.238;10.716;2022-08-04T12:24:45;36.60;54.50
21417;DHT22;10869;52.238;10.716;2022-08-04T12:27:20;36.60;56.50
21417;DHT22;10869;52.238;10.716;2022-08-04T12:29:47;36.70;55.20
21417;DHT22;10869;52.238;10.716;2022-08-04T12:38:25;37.20;55.10
21417;DHT22;10869;52.238;10.716;2022-08-04T12:40:57;37.50;54.90
21417;DHT22;10869;52.238;10.716;2022-08-04T12:43:42;37.60;53.60
21417;DHT22;10869;52.238;10.716;2022-08-04T12:46:11;37.50;53.10
21417;DHT22;10869;52.238;10.716;2022-08-04T12:48:38;37.30;54.40
21417;DHT22;10869;52.238;10.716;2022-08-04T12:51:07;37.30;55.80
21417;DHT22;10869;52.238;10.716;2022-08-04T12:53:40;37.40;55.80
21417;DHT22;10869;52.238;10.716;2022-08-04T12:56:13;37.40;54.70
21417;DHT22;10869;52.238;10.716;2022-08-04T12:58:48;37.50;53.60
21417;DHT22;10869;52.238;10.716;2022-08-04T13:01:21;37.30;52.90
21417;DHT22;10869;52.238;10.716;2022-08-04T13:04:00;37.20;53.10
21417;DHT22;10869;52.238;10.716;2022-08-04T13:06:31;37.20;53.60
21417;DHT22;10869;52.238;10.716;2022-08-04T13:09:12;36.90;53.80
21417;DHT22;10869;52.238;10.716;2022-08-04T13:11:42;36.90;54.70
21417;DHT22;10869;52.238;10.716;2022-08-04T13:14:11;36.90;54.20
21417;DHT22;10869;52.238;10.716;2022-08-04T13:16:37;37.10;54.70
21417;DHT22;10869;52.238;10.716;2022-08-04T13:19:07;37.40;54.40
21417;DHT22;10869;52.238;10.716;2022-08-04T13:21:33;37.40;54.50
21417;DHT22;10869;52.238;10.716;2022-08-04T13:24:05;37.50;54.40
21417;DHT22;10869;52.238;10.716;2022-08-04T13:26:32;37.40;54.40
21417;DHT22;10869;52.238;10.716;2022-08-04T13:29:01;37.40;53.40
21417;DHT22;10869;52.238;10.716;2022-08-04T13:31:28;37.40;52.50
21417;DHT22;10869;52.238;10.716;2022-08-04T13:34:07;37.30;53.40
21417;DHT22;10869;52.238;10.716;2022-08-04T13:36:34;37.20;52.90
21417;DHT22;10869;52.238;10.716;2022-08-04T13:39:14;37.20;54.00
21417;DHT22;10869;52.238;10.716;2022-08-04T13:41:45;37.20;53.60
21417;DHT22;10869;52.238;10.716;2022-08-04T13:44:13;37.20;52.30
21417;DHT22;10869;52.238;10.716;2022-08-04T13:46:52;37.30;53.00
21417;DHT22;10869;52.238;10.716;2022-08-04T13:49:19;37.10;52.70
21417;DHT22;10869;52.238;10.716;2022-08-04T13:51:48;37.30;52.80
21417;DHT22;10869;52.238;10.716;2022-08-04T13:54:15;37.30;54.80
21417;DHT22;10869;52.238;10.716;2022-08-04T13:56:52;37.20;52.80
21417;DHT22;10869;52.238;10.716;2022-08-04T13:59:22;37.10;54.70
21417;DHT22;10869;52.238;10.716;2022-08-04T14:02:03;37.10;52.30
21417;DHT22;10869;52.238;10.716;2022-08-04T14:04:31;37.10;53.10
21417;DHT22;10869;52.238;10.716;2022-08-04T14:22:59;37.30;53.60
21417;DHT22;10869;52.238;10.716;2022-08-04T14:25:27;37.20;52.50
21417;DHT22;10869;52.238;10.716;2022-08-04T14:27:55;37.30;53.20
21417;DHT22;10869;52.238;10.716;2022-08-04T14:33:45;37.20;53.60
21417;DHT22;10869;52.238;10.716;2022-08-04T14:36:13;37.00;53.00
21417;DHT22;10869;52.238;10.716;2022-08-04T14:41:18;36.80;53.60
21417;DHT22;10869;52.238;10.716;2022-08-04T14:43:50;36.50;54.50
21417;DHT22;10869;52.238;10.716;2022-08-04T14:50:04;36.30;53.10
21417;DHT22;10869;52.238;10.716;2022-08-04T14:52:36;36.30;55.40
21417;DHT22;10869;52.238;10.716;2022-08-04T15:06:15;35.80;56.70
21417;DHT22;10869;52.238;10.716;2022-08-04T15:12:05;35.70;56.00
21417;DHT22;10869;52.238;10.716;2022-08-04T15:17:57;35.50;56.00
21417;DHT22;10869;52.238;10.716;2022-08-04T15:20:28;35.30;57.00
21417;DHT22;10869;52.238;10.716;2022-08-04T15:29:37;34.60;56.70
21417;DHT22;10869;52.238;10.716;2022-08-04T15:49:27;33.40;59.20
21417;DHT22;10869;52.238;10.716;2022-08-04T15:52:11;33.30;59.70
21417;DHT22;10869;52.238;10.716;2022-08-04T15:54:40;33.30;58.70
21417;DHT22;10869;52.238;10.716;2022-08-04T15:57:07;33.30;59.00
21417;DHT22;10869;52.238;10.716;2022-08-04T16:05:44;33.00;61.30
21417;DHT22;10869;52.238;10.716;2022-08-04T16:17:23;32.10;64.50
21417;DHT22;10869;52.238;10.716;2022-08-04T16:29:32;31.40;64.20
21417;DHT22;10869;52.238;10.716;2022-08-04T16:40:30;30.80;67.60
21417;DHT22;10869;52.238;10.716;2022-08-04T16:46:39;30.50;68.60
21417;DHT22;10869;52.238;10.716;2022-08-04T16:52:27;30.30;72.40
21417;DHT22;10869;52.238;10.716;2022-08-04T16:58:16;30.10;69.70
21417;DHT22;10869;52.238;10.716;2022-08-04T17:00:43;30.10;70.80
21417;DHT22;10869;52.238;10.716;2022-08-04T17:03:10;30.00;71.00
21417;DHT22;10869;52.238;10.716;2022-08-04T17:09:03;30.00;73.90
21417;DHT22;10869;52.238;10.716;2022-08-04T17:14:52;29.80;75.20
21417;DHT22;10869;52.238;10.716;2022-08-04T17:17:21;29.60;73.60
21417;DHT22;10869;52.238;10.716;2022-08-04T17:19:53;29.40;71.40
21417;DHT22;10869;52.238;10.716;2022-08-04T17:22:19;29.40;72.30
21417;DHT22;10869;52.238;10.716;2022-08-04T17:24:45;29.40;73.80
21417;DHT22;10869;52.238;10.716;2022-08-04T17:27:12;29.30;74.00
21417;DHT22;10869;52.238;10.716;2022-08-04T17:33:03;29.20;74.70
21417;DHT22;10869;52.238;10.716;2022-08-04T17:35:29;29.10;76.50
21417;DHT22;10869;52.238;10.716;2022-08-04T17:37:55;29.00;76.60
21417;DHT22;10869;52.238;10.716;2022-08-04T17:40:21;29.00;75.90
21417;DHT22;10869;52.238;10.716;2022-08-04T17:42:46;28.90;76.10
21417;DHT22;10869;52.238;10.716;2022-08-04T17:45:15;28.90;74.60
21417;DHT22;10869;52.238;10.716;2022-08-04T17:47:51;28.80;74.70
21417;DHT22;10869;52.238;10.716;2022-08-04T17:50:28;28.80;74.00
21417;DHT22;10869;52.238;10.716;2022-08-04T17:56:30;28.80;75.20
21417;DHT22;10869;52.238;10.716;2022-08-04T17:59:18;28.70;74.90
21417;DHT22;10869;52.238;10.716;2022-08-04T18:05:06;28.50;76.30
21417;DHT22;10869;52.238;10.716;2022-08-04T18:07:37;28.50;77.30
21417;DHT22;10869;52.238;10.716;2022-08-04T18:13:26;28.20;78.50
21417;DHT22;10869;52.238;10.716;2022-08-04T18:16:03;28.10;78.30
21417;DHT22;10869;52.238;10.716;2022-08-04T18:21:51;27.80;80.10
21417;DHT22;10869;52.238;10.716;2022-08-04T18:24:17;27.70;80.40
21417;DHT22;10869;52.238;10.716;2022-08-04T18:26:43;27.60;81.20
21417;DHT22;10869;52.238;10.716;2022-08-04T18:32:33;27.40;81.50
21417;DHT22;10869;52.238;10.716;2022-08-04T18:35:01;27.20;82.60
21417;DHT22;10869;52.238;10.716;2022-08-04T18:37:27;27.20;85.30
21417;DHT22;10869;52.238;10.716;2022-08-04T18:39:52;27.00;85.20
21417;DHT22;10869;52.238;10.716;2022-08-04T18:45:40;26.90;87.50
21417;DHT22;10869;52.238;10.716;2022-08-04T18:48:06;26.70;86.20
21417;DHT22;10869;52.238;10.716;2022-08-04T18:53:54;26.50;88.70
21417;DHT22;10869;52.238;10.716;2022-08-04T18:56:20;26.50;89.80
21417;DHT22;10869;52.238;10.716;2022-08-04T18:58:45;26.30;89.60
21417;DHT22;10869;52.238;10.716;2022-08-04T19:01:12;26.20;89.70
21417;DHT22;10869;52.238;10.716;2022-08-04T19:03:40;26.10;89.30
21417;DHT22;10869;52.238;10.716;2022-08-04T19:06:06;26.10;88.60
21417;DHT22;10869;52.238;10.716;2022-08-04T19:08:32;26.00;89.00
21417;DHT22;10869;52.238;10.716;2022-08-04T19:10:58;26.00;89.80
21417;DHT22;10869;52.238;10.716;2022-08-04T19:13:25;25.90;90.00
21417;DHT22;10869;52.238;10.716;2022-08-04T19:19:13;25.70;90.20
21417;DHT22;10869;52.238;10.716;2022-08-04T19:25:02;25.50;90.50
21417;DHT22;10869;52.238;10.716;2022-08-04T19:27:27;25.40;91.20
21417;DHT22;10869;52.238;10.716;2022-08-04T19:29:54;25.40;91.30
21417;DHT22;10869;52.238;10.716;2022-08-04T19:35:55;25.20;91.40
21417;DHT22;10869;52.238;10.716;2022-08-04T19:41:43;25.10;91.60
21417;DHT22;10869;52.238;10.716;2022-08-04T19:44:08;25.00;92.10
21417;DHT22;10869;52.238;10.716;2022-08-04T19:46:34;25.00;92.30
21417;DHT22;10869;52.238;10.716;2022-08-04T19:49:00;24.90;92.70
21417;DHT22;10869;52.238;10.716;2022-08-04T19:51:28;24.90;93.00
21417;DHT22;10869;52.238;10.716;2022-08-04T19:53:54;24.80;93.10
21417;DHT22;10869;52.238;10.716;2022-08-04T19:56:19;24.70;93.10
21417;DHT22;10869;52.238;10.716;2022-08-04T19:58:45;24.70;93.00
21417;DHT22;10869;52.238;10.716;2022-08-04T20:01:12;24.60;92.80
21417;DHT22;10869;52.238;10.716;2022-08-04T20:03:37;24.60;92.80
21417;DHT22;10869;52.238;10.716;2022-08-04T20:06:03;24.60;93.00
21417;DHT22;10869;52.238;10.716;2022-08-04T20:11:52;24.50;93.50
21417;DHT22;10869;52.238;10.716;2022-08-04T20:14:17;24.40;93.80
21417;DHT22;10869;52.238;10.716;2022-08-04T20:20:05;24.30;94.20
21417;DHT22;10869;52.238;10.716;2022-08-04T20:22:31;24.20;94.40
21417;DHT22;10869;52.238;10.716;2022-08-04T20:24:57;24.10;94.90
21417;DHT22;10869;52.238;10.716;2022-08-04T20:27:23;24.10;95.10
21417;DHT22;10869;52.238;10.716;2022-08-04T20:29:51;24.10;95.30
21417;DHT22;10869;52.238;10.716;2022-08-04T20:32:22;24.00;95.20
21417;DHT22;10869;52.238;10.716;2022-08-04T20:34:53;24.00;95.60
21417;DHT22;10869;52.238;10.716;2022-08-04T20:45:24;23.90;95.90
21417;DHT22;10869;52.238;10.716;2022-08-04T20:47:50;23.90;96.10
21417;DHT22;10869;52.238;10.716;2022-08-04T20:50:16;23.90;96.20
21417;DHT22;10869;52.238;10.716;2022-08-04T20:52:42;23.90;96.00
21417;DHT22;10869;52.238;10.716;2022-08-04T20:55:09;23.90;95.80
21417;DHT22;10869;52.238;10.716;2022-08-04T20:57:35;23.80;95.40
21417;DHT22;10869;52.238;10.716;2022-08-04T21:00:01;23.80;95.30
21417;DHT22;10869;52.238;10.716;2022-08-04T21:02:28;23.80;95.40
21417;DHT22;10869;52.238;10.716;2022-08-04T21:04:53;23.80;95.20
21417;DHT22;10869;52.238;10.716;2022-08-04T21:07:19;23.80;95.00
21417;DHT22;10869;52.238;10.716;2022-08-04T21:10:14;23.80;95.00
21417;DHT22;10869;52.238;10.716;2022-08-04T21:16:10;23.80;94.80
21417;DHT22;10869;52.238;10.716;2022-08-04T21:18:37;23.70;94.50
21417;DHT22;10869;52.238;10.716;2022-08-04T21:21:02;23.70;94.40
21417;DHT22;10869;52.238;10.716;2022-08-04T21:23:28;23.70;94.40
21417;DHT22;10869;52.238;10.716;2022-08-04T21:26:04;23.70;94.00
21417;DHT22;10869;52.238;10.716;2022-08-04T21:28:33;23.60;93.90
21417;DHT22;10869;52.238;10.716;2022-08-04T21:30:59;23.60;93.80
21417;DHT22;10869;52.238;10.716;2022-08-04T21:33:27;23.60;93.30
21417;DHT22;10869;52.238;10.716;2022-08-04T21:35:53;23.60;93.40
21417;DHT22;10869;52.238;10.716;2022-08-04T21:38:23;23.60;93.80
21417;DHT22;10869;52.238;10.716;2022-08-04T21:40:52;23.60;93.40
21417;DHT22;10869;52.238;10.716;2022-08-04T21:43:18;23.50;93.30
21417;DHT22;10869;52.238;10.716;2022-08-04T21:45:44;23.50;93.70
21417;DHT22;10869;52.238;10.716;2022-08-04T21:51:34;23.50;93.80
21417;DHT22;10869;52.238;10.716;2022-08-04T21:54:01;23.40;94.20
21417;DHT22;10869;52.238;10.716;2022-08-04T21:56:27;23.50;94.20
21417;DHT22;10869;52.238;10.716;2022-08-04T21:58:53;23.40;94.50
21417;DHT22;10869;52.238;10.716;2022-08-04T22:01:19;23.40;94.40
21417;DHT22;10869;52.238;10.716;2022-08-04T22:03:46;23.40;93.80
21417;DHT22;10869;52.238;10.716;2022-08-04T22:06:13;23.30;93.50
21417;DHT22;10869;52.238;10.716;2022-08-04T22:08:40;23.30;93.50
21417;DHT22;10869;52.238;10.716;2022-08-04T22:13:47;23.20;93.80
21417;DHT22;10869;52.238;10.716;2022-08-04T22:16:14;23.30;94.60
21417;DHT22;10869;52.238;10.716;2022-08-04T22:18:39;23.20;94.60
21417;DHT22;10869;52.238;10.716;2022-08-04T22:21:05;23.20;94.80
21417;DHT22;10869;52.238;10.716;2022-08-04T22:23:31;23.20;95.30
21417;DHT22;10869;52.238;10.716;2022-08-04T22:25:57;23.10;95.70
21417;DHT22;10869;52.238;10.716;2022-08-04T22:28:23;23.10;95.20
21417;DHT22;10869;52.238;10.716;2022-08-04T22:30:49;23.10;95.10
21417;DHT22;10869;52.238;10.716;2022-08-04T22:33:15;23.00;94.90
21417;DHT22;10869;52.238;10.716;2022-08-04T22:35:41;23.00;94.80
21417;DHT22;10869;52.238;10.716;2022-08-04T22:38:10;23.00;95.50
21417;DHT22;10869;52.238;10.716;2022-08-04T22:40:36;22.90;95.20
21417;DHT22;10869;52.238;10.716;2022-08-04T22:43:03;22.90;95.10
21417;DHT22;10869;52.238;10.716;2022-08-04T22:45:34;22.80;95.50
21417;DHT22;10869;52.238;10.716;2022-08-04T22:48:00;22.80;95.50
21417;DHT22;10869;52.238;10.716;2022-08-04T22:50:26;22.80;95.60
21417;DHT22;10869;52.238;10.716;2022-08-04T22:52:54;22.70;96.30
21417;DHT22;10869;52.238;10.716;2022-08-04T22:55:19;22.60;95.90
21417;DHT22;10869;52.238;10.716;2022-08-04T22:57:45;22.60;96.70
